Time;durP1;ratioP1;P1;durP2;ratioP2;P2;SDS_P1;SDS_P2;PMS_P1;PMS_P2;Temp;Humidity;BMP_temperature;BMP_pressure;BME280_temperature;BME280_humidity;BME280_pressure;Samples;Min_cycle;Max_cycle;Signal;HPM_P1;HPM_P2
2021/12/20 00:01:53;;;;;;;1.10;0.90;;;;;;;;;;5043067;28;20040;-29
2021/12/20 00:04:18;;;;;;;0.80;0.73;;;;;;;;;;5043004;28;20758;-31
2021/12/20 00:06:44;;;;;;;1.15;0.90;;;;;;;;;;5042165;28;20525;-35
2021/12/20 00:09:10;;;;;;;1.00;0.90;;;;;;;;;;5042326;28;20029;-33
2021/12/20 00:11:35;;;;;;;0.70;0.63;;;;;;;;;;5042245;28;20654;-29
2021/12/20 00:14:00;;;;;;;1.13;0.93;;;;;;;;;;5042005;28;20159;-32
2021/12/20 00:16:26;;;;;;;1.00;0.80;;;;;;;;;;5042953;28;20053;-28
2021/12/20 00:18:52;;;;;;;1.15;1.00;;;;;;;;;;5044105;28;20029;-30
2021/12/20 00:21:17;;;;;;;1.00;0.90;;;;;;;;;;5046978;28;20037;-32
2021/12/20 00:23:43;;;;;;;1.40;1.00;;;;;;;;;;5046344;28;20043;-33
2021/12/20 00:26:09;;;;;;;1.25;0.98;;;;;;;;;;5046315;28;20029;-33
2021/12/20 00:28:35;;;;;;;1.10;0.93;;;;;;;;;;5046507;28;20110;-28
2021/12/20 00:31:01;;;;;;;1.27;1.00;;;;;;;;;;5046237;28;20036;-31
2021/12/20 00:33:28;;;;;;;1.00;0.88;;;;;;;;;;5043566;28;20044;-31
2021/12/20 00:35:54;;;;;;;1.08;0.95;;;;;;;;;;5046892;28;20082;-31
2021/12/20 00:41:03;;;;;;;1.00;0.90;;;;;;;;;;5045848;28;20067;-30
2021/12/20 00:43:29;;;;;;;1.15;1.02;;;;;;;;;;5043721;28;20045;-32
2021/12/20 00:45:55;;;;;;;1.45;1.13;;;;;;;;;;5044135;28;20068;-28
2021/12/20 00:48:20;;;;;;;0.90;0.80;;;;;;;;;;5046485;28;20426;-29
2021/12/20 00:50:46;;;;;;;1.40;0.93;;;;;;;;;;5046747;28;20067;-28
2021/12/20 00:53:12;;;;;;;1.23;0.80;;;;;;;;;;5045501;28;20051;-31
2021/12/20 00:55:37;;;;;;;0.98;0.80;;;;;;;;;;5045831;28;20128;-30
2021/12/20 00:58:03;;;;;;;0.98;0.88;;;;;;;;;;5044838;28;20061;-31
2021/12/20 01:00:56;;;;;;;0.77;0.70;;;;;;;;;;5045052;28;20060;-32
2021/12/20 01:03:22;;;;;;;1.00;0.80;;;;;;;;;;5045766;28;20044;-30
2021/12/20 01:05:47;;;;;;;0.90;0.70;;;;;;;;;;5046168;28;20495;-32
2021/12/20 01:08:13;;;;;;;1.20;0.90;;;;;;;;;;5045503;28;20039;-32
2021/12/20 01:10:43;;;;;;;0.80;0.80;;;;;;;;;;5045594;28;20037;-32
2021/12/20 01:13:09;;;;;;;0.82;0.77;;;;;;;;;;5045559;28;20032;-31
2021/12/20 01:15:40;;;;;;;0.85;0.65;;;;;;;;;;5045247;28;20060;-29
2021/12/20 01:18:07;;;;;;;0.75;0.73;;;;;;;;;;5045227;28;20029;-31
2021/12/20 01:20:34;;;;;;;0.82;0.60;;;;;;;;;;5045002;28;20515;-33
2021/12/20 01:22:59;;;;;;;0.38;0.38;;;;;;;;;;5045404;28;20104;-33
2021/12/20 01:25:25;;;;;;;0.98;0.80;;;;;;;;;;5045781;28;20108;-30
2021/12/20 01:27:51;;;;;;;0.85;0.68;;;;;;;;;;5045208;28;20516;-30
2021/12/20 01:30:17;;;;;;;1.10;0.77;;;;;;;;;;5044594;28;20025;-33
2021/12/20 01:32:43;;;;;;;0.80;0.80;;;;;;;;;;5030287;28;20112;-28
2021/12/20 01:35:09;;;;;;;0.77;0.60;;;;;;;;;;5039176;28;20033;-29
2021/12/20 01:37:34;;;;;;;0.70;0.60;;;;;;;;;;5045325;28;20064;-30
2021/12/20 01:40:00;;;;;;;0.60;0.60;;;;;;;;;;5045025;28;20403;-32
2021/12/20 01:42:28;;;;;;;1.05;0.90;;;;;;;;;;5045263;28;20045;-28
2021/12/20 01:44:56;;;;;;;0.70;0.70;;;;;;;;;;5045325;28;20048;-33
2021/12/20 01:47:23;;;;;;;0.75;0.73;;;;;;;;;;5044392;28;20465;-30
2021/12/20 01:49:59;;;;;;;0.95;0.75;;;;;;;;;;5036730;28;20025;-31
2021/12/20 01:52:27;;;;;;;0.68;0.68;;;;;;;;;;5044064;28;20108;-31
2021/12/20 01:54:53;;;;;;;0.85;0.68;;;;;;;;;;5044546;28;20032;-35
2021/12/20 01:57:20;;;;;;;0.82;0.70;;;;;;;;;;5037053;28;20057;-33
2021/12/20 01:59:46;;;;;;;0.80;0.80;;;;;;;;;;5024813;28;20033;-31
2021/12/20 02:02:12;;;;;;;0.52;0.52;;;;;;;;;;5024664;28;20078;-30
2021/12/20 02:04:45;;;;;;;1.38;0.60;;;;;;;;;;5024908;28;20200;-29
2021/12/20 02:07:30;;;;;;;0.60;0.60;;;;;;;;;;5025949;28;20060;-32
2021/12/20 02:09:55;;;;;;;1.17;0.88;;;;;;;;;;5044248;28;20136;-31
2021/12/20 02:12:21;;;;;;;0.60;0.60;;;;;;;;;;5044571;28;20028;-33
2021/12/20 02:14:46;;;;;;;0.85;0.60;;;;;;;;;;5042859;28;20037;-31
2021/12/20 02:17:14;;;;;;;0.90;0.70;;;;;;;;;;5024711;28;20120;-36
2021/12/20 02:19:39;;;;;;;0.65;0.63;;;;;;;;;;5026478;28;20147;-30
2021/12/20 02:22:05;;;;;;;1.67;0.70;;;;;;;;;;5024301;28;20524;-33
2021/12/20 02:24:30;;;;;;;0.80;0.80;;;;;;;;;;5024420;28;20030;-31
2021/12/20 02:26:56;;;;;;;0.80;0.75;;;;;;;;;;5023956;28;20034;-31
2021/12/20 02:29:28;;;;;;;0.95;0.80;;;;;;;;;;5028701;28;20044;-30
2021/12/20 02:37:28;;;;;;;0.73;0.70;;;;;;;;;;5043430;28;20110;-32
2021/12/20 02:39:54;;;;;;;0.60;0.60;;;;;;;;;;5042881;28;20028;-33
2021/12/20 02:42:24;;;;;;;1.02;0.75;;;;;;;;;;5043372;28;20052;-32
2021/12/20 02:44:59;;;;;;;0.88;0.77;;;;;;;;;;5042653;28;20031;-32
2021/12/20 02:47:29;;;;;;;0.80;0.65;;;;;;;;;;5043707;28;20063;-36
2021/12/20 02:49:58;;;;;;;0.75;0.70;;;;;;;;;;5043929;28;20036;-36
2021/12/20 02:52:23;;;;;;;0.70;0.70;;;;;;;;;;5043862;28;20025;-30
2021/12/20 02:54:49;;;;;;;0.95;0.70;;;;;;;;;;5043734;28;20535;-31
2021/12/20 02:57:15;;;;;;;1.10;1.00;;;;;;;;;;5043610;28;20055;-32
2021/12/20 02:59:40;;;;;;;0.77;0.75;;;;;;;;;;5043736;28;20033;-32
2021/12/20 03:02:07;;;;;;;1.00;0.90;;;;;;;;;;5043429;28;20388;-33
2021/12/20 03:04:33;;;;;;;0.70;0.70;;;;;;;;;;5043636;28;20029;-30
2021/12/20 03:07:01;;;;;;;1.10;0.93;;;;;;;;;;5043114;28;20037;-30
2021/12/20 03:09:31;;;;;;;1.13;0.77;;;;;;;;;;5043195;28;20028;-32
2021/12/20 03:11:59;;;;;;;1.02;0.80;;;;;;;;;;5043151;28;20526;-32
2021/12/20 03:14:31;;;;;;;1.55;1.08;;;;;;;;;;5043883;28;20705;-31
2021/12/20 03:16:57;;;;;;;0.82;0.70;;;;;;;;;;5042717;28;20044;-32
2021/12/20 03:19:23;;;;;;;1.17;0.90;;;;;;;;;;5042954;28;20025;-36
2021/12/20 03:21:48;;;;;;;0.77;0.77;;;;;;;;;;5043085;28;20029;-34
2021/12/20 03:24:14;;;;;;;0.80;0.77;;;;;;;;;;5043252;28;20538;-31
2021/12/20 03:26:39;;;;;;;0.95;0.88;;;;;;;;;;5043154;28;20440;-32
2021/12/20 03:29:05;;;;;;;0.70;0.70;;;;;;;;;;5035841;28;20399;-33
2021/12/20 03:31:30;;;;;;;0.93;0.82;;;;;;;;;;5022490;28;20029;-33
2021/12/20 03:33:56;;;;;;;1.02;0.70;;;;;;;;;;5023494;28;20031;-30
2021/12/20 03:36:22;;;;;;;1.10;0.80;;;;;;;;;;5023771;28;20108;-32
2021/12/20 03:38:47;;;;;;;0.77;0.60;;;;;;;;;;5023027;28;20503;-28
2021/12/20 03:41:13;;;;;;;1.08;0.98;;;;;;;;;;5023317;28;20056;-32
2021/12/20 03:43:38;;;;;;;0.80;0.70;;;;;;;;;;5022717;28;20037;-31
2021/12/20 03:46:05;;;;;;;0.98;0.85;;;;;;;;;;5022516;28;20129;-32
2021/12/20 03:48:30;;;;;;;1.30;0.82;;;;;;;;;;5022792;28;20033;-29
2021/12/20 03:50:56;;;;;;;1.00;0.90;;;;;;;;;;5022882;28;20033;-32
2021/12/20 03:53:21;;;;;;;1.15;0.85;;;;;;;;;;5028142;28;20491;-34
2021/12/20 03:55:47;;;;;;;0.98;0.90;;;;;;;;;;5023728;28;20079;-29
2021/12/20 03:58:12;;;;;;;0.93;0.82;;;;;;;;;;5022267;28;20665;-29
2021/12/20 04:00:38;;;;;;;0.90;0.80;;;;;;;;;;5022466;28;20029;-31
2021/12/20 04:03:09;;;;;;;1.00;0.90;;;;;;;;;;5022838;28;20036;-29
2021/12/20 04:05:35;;;;;;;1.42;1.00;;;;;;;;;;5021519;28;20072;-32
2021/12/20 04:08:01;;;;;;;0.88;0.80;;;;;;;;;;5022855;28;20116;-30
2021/12/20 04:10:26;;;;;;;1.02;0.95;;;;;;;;;;5022961;28;20029;-32
2021/12/20 04:12:51;;;;;;;0.73;0.70;;;;;;;;;;5023254;28;20092;-30
2021/12/20 04:15:17;;;;;;;0.70;0.70;;;;;;;;;;5023343;28;20488;-32
2021/12/20 04:17:42;;;;;;;1.00;0.85;;;;;;;;;;5022257;28;20059;-33
2021/12/20 04:20:09;;;;;;;1.23;1.13;;;;;;;;;;5022084;28;20038;-33
2021/12/20 04:22:34;;;;;;;1.05;0.95;;;;;;;;;;5021441;28;20412;-31
2021/12/20 04:25:00;;;;;;;1.10;1.00;;;;;;;;;;5022576;28;20087;-30
2021/12/20 04:27:25;;;;;;;1.13;0.90;;;;;;;;;;5022215;28;20557;-33
2021/12/20 04:29:53;;;;;;;1.50;0.85;;;;;;;;;;5022749;28;20064;-34
2021/12/20 04:32:19;;;;;;;0.93;0.88;;;;;;;;;;5022981;28;20620;-33
2021/12/20 04:34:44;;;;;;;0.70;0.70;;;;;;;;;;5022870;28;20029;-32
2021/12/20 04:37:10;;;;;;;1.00;0.80;;;;;;;;;;5022163;28;20813;-29
2021/12/20 04:39:35;;;;;;;0.98;0.70;;;;;;;;;;5022788;28;20041;-30
2021/12/20 04:42:01;;;;;;;1.00;0.90;;;;;;;;;;5021959;28;20500;-31
2021/12/20 04:44:27;;;;;;;0.77;0.77;;;;;;;;;;5027869;28;20033;-32
2021/12/20 04:46:52;;;;;;;0.93;0.90;;;;;;;;;;5042986;28;20044;-33
2021/12/20 04:49:18;;;;;;;1.15;0.68;;;;;;;;;;5042826;28;20087;-33
2021/12/20 04:51:43;;;;;;;0.68;0.60;;;;;;;;;;5042630;28;20025;-34
2021/12/20 04:54:09;;;;;;;0.80;0.70;;;;;;;;;;5041937;28;20059;-36
2021/12/20 04:56:34;;;;;;;1.20;0.88;;;;;;;;;;5042099;28;20056;-28
2021/12/20 04:59:00;;;;;;;1.00;0.90;;;;;;;;;;5041335;28;20040;-28
2021/12/20 05:01:25;;;;;;;0.88;0.70;;;;;;;;;;5041581;28;20025;-28
2021/12/20 05:03:51;;;;;;;0.77;0.70;;;;;;;;;;5042346;28;20515;-34
2021/12/20 05:06:17;;;;;;;1.30;0.90;;;;;;;;;;5045793;28;20029;-31
2021/12/20 05:08:51;;;;;;;0.70;0.60;;;;;;;;;;5045868;28;20048;-30
2021/12/20 05:11:16;;;;;;;1.02;0.93;;;;;;;;;;5046082;28;20032;-29
2021/12/20 05:13:42;;;;;;;1.10;0.95;;;;;;;;;;5046264;28;20028;-31
2021/12/20 05:16:08;;;;;;;0.70;0.68;;;;;;;;;;5045452;28;20025;-28
2021/12/20 05:18:33;;;;;;;1.20;1.02;;;;;;;;;;5045459;28;20182;-32
2021/12/20 05:20:59;;;;;;;0.88;0.85;;;;;;;;;;5045475;28;20126;-30
2021/12/20 05:23:24;;;;;;;0.80;0.80;;;;;;;;;;5041453;28;20086;-29
2021/12/20 05:25:50;;;;;;;1.00;0.90;;;;;;;;;;5033367;28;20041;-28
2021/12/20 05:28:16;;;;;;;0.80;0.80;;;;;;;;;;5031942;28;20036;-31
2021/12/20 05:30:41;;;;;;;0.88;0.73;;;;;;;;;;5033569;28;20067;-35
2021/12/20 05:33:06;;;;;;;1.13;0.93;;;;;;;;;;5036034;28;20718;-32
2021/12/20 05:35:32;;;;;;;0.80;0.75;;;;;;;;;;5025471;28;20053;-31
2021/12/20 05:37:58;;;;;;;0.70;0.70;;;;;;;;;;5025614;28;20471;-32
2021/12/20 05:40:24;;;;;;;0.93;0.85;;;;;;;;;;5026583;28;20036;-29
2021/12/20 05:42:49;;;;;;;0.90;0.70;;;;;;;;;;5033112;28;20052;-30
2021/12/20 05:45:15;;;;;;;0.77;0.70;;;;;;;;;;5025232;28;20103;-31
2021/12/20 05:47:41;;;;;;;0.88;0.80;;;;;;;;;;5041601;28;20041;-32
2021/12/20 05:50:07;;;;;;;1.25;0.80;;;;;;;;;;5044938;28;20067;-31
2021/12/20 05:52:33;;;;;;;1.00;0.85;;;;;;;;;;5044485;28;20503;-30
2021/12/20 05:54:58;;;;;;;0.85;0.70;;;;;;;;;;5044946;28;20028;-30
2021/12/20 05:57:24;;;;;;;3.33;0.93;;;;;;;;;;5042125;28;20114;-33
2021/12/20 05:59:49;;;;;;;7.65;1.10;;;;;;;;;;5036134;28;20037;-31
2021/12/20 06:02:15;;;;;;;7.93;0.93;;;;;;;;;;5032796;28;20029;-32
2021/12/20 06:04:40;;;;;;;3.35;0.90;;;;;;;;;;5036287;28;20033;-33
2021/12/20 06:07:08;;;;;;;5.97;1.23;;;;;;;;;;5042387;28;20451;-29
2021/12/20 06:09:33;;;;;;;6.80;1.23;;;;;;;;;;5035253;28;20041;-31
2021/12/20 06:11:59;;;;;;;5.47;1.10;;;;;;;;;;5033634;28;20107;-32
2021/12/20 06:14:28;;;;;;;7.13;1.50;;;;;;;;;;5042769;28;20025;-30
2021/12/20 06:16:55;;;;;;;3.15;1.20;;;;;;;;;;5043960;28;20541;-33
2021/12/20 06:19:23;;;;;;;7.80;0.90;;;;;;;;;;5043999;28;20067;-31
2021/12/20 06:21:49;;;;;;;6.57;1.00;;;;;;;;;;5043589;28;20025;-32
2021/12/20 06:24:15;;;;;;;9.15;1.60;;;;;;;;;;5040323;28;20033;-33
2021/12/20 06:26:40;;;;;;;2.63;1.02;;;;;;;;;;5023869;28;20037;-32
2021/12/20 06:29:06;;;;;;;2.78;1.23;;;;;;;;;;5024484;28;20034;-32
2021/12/20 06:31:31;;;;;;;2.83;0.95;;;;;;;;;;5023060;28;20022;-30
2021/12/20 06:33:57;;;;;;;3.80;0.90;;;;;;;;;;5023033;28;20040;-35
2021/12/20 06:36:25;;;;;;;4.22;1.00;;;;;;;;;;5023518;28;20033;-37
2021/12/20 06:38:53;;;;;;;1.50;0.90;;;;;;;;;;5023282;28;20120;-31
2021/12/20 06:41:19;;;;;;;3.55;0.77;;;;;;;;;;5026128;28;20021;-34
2021/12/20 06:43:44;;;;;;;4.75;0.90;;;;;;;;;;5032149;28;20022;-31
2021/12/20 06:46:10;;;;;;;1.45;0.80;;;;;;;;;;5025840;28;20055;-31
2021/12/20 06:48:35;;;;;;;2.47;0.90;;;;;;;;;;5035776;28;20031;-33
2021/12/20 06:51:01;;;;;;;2.58;0.80;;;;;;;;;;5035241;28;20021;-33
2021/12/20 06:53:27;;;;;;;2.55;0.82;;;;;;;;;;5028268;28;20032;-34
2021/12/20 06:55:53;;;;;;;1.13;0.80;;;;;;;;;;5028898;28;20032;-35
2021/12/20 06:58:18;;;;;;;1.90;0.85;;;;;;;;;;5022842;28;20049;-33
2021/12/20 07:00:44;;;;;;;1.77;0.80;;;;;;;;;;5027164;28;20029;-34
2021/12/20 07:03:09;;;;;;;3.92;0.80;;;;;;;;;;5036433;28;20103;-30
2021/12/20 07:05:35;;;;;;;1.65;0.80;;;;;;;;;;5035026;28;20036;-30
2021/12/20 07:08:02;;;;;;;1.40;0.77;;;;;;;;;;5039750;28;20025;-30
2021/12/20 07:10:28;;;;;;;3.92;1.17;;;;;;;;;;5043409;28;20040;-38
2021/12/20 07:12:53;;;;;;;2.53;0.70;;;;;;;;;;5043106;28;20033;-30
2021/12/20 07:15:19;;;;;;;2.92;1.10;;;;;;;;;;5025332;28;20407;-29
2021/12/20 07:17:44;;;;;;;3.05;1.00;;;;;;;;;;5023737;28;20404;-28
2021/12/20 07:20:11;;;;;;;4.15;0.90;;;;;;;;;;5023195;28;20416;-29
2021/12/20 07:22:36;;;;;;;2.85;1.13;;;;;;;;;;5042676;28;20040;-32
2021/12/20 07:25:02;;;;;;;5.07;0.80;;;;;;;;;;5043061;28;20025;-30
2021/12/20 07:27:28;;;;;;;4.43;1.00;;;;;;;;;;5041287;28;20438;-32
2021/12/20 07:29:53;;;;;;;2.25;1.15;;;;;;;;;;5034110;28;20071;-33
2021/12/20 07:32:19;;;;;;;3.05;0.93;;;;;;;;;;5041205;28;20784;-29
2021/12/20 07:34:44;;;;;;;5.40;1.00;;;;;;;;;;5025502;28;20035;-30
2021/12/20 07:37:10;;;;;;;2.08;1.10;;;;;;;;;;5037896;28;20033;-33
2021/12/20 07:39:35;;;;;;;4.38;1.10;;;;;;;;;;5031280;28;20187;-31
2021/12/20 07:42:01;;;;;;;1.35;0.82;;;;;;;;;;5035247;28;20033;-30
2021/12/20 07:44:27;;;;;;;1.52;0.98;;;;;;;;;;5031251;28;20438;-32
2021/12/20 07:46:52;;;;;;;3.55;0.90;;;;;;;;;;5024706;28;20064;-34
2021/12/20 07:49:18;;;;;;;2.60;1.08;;;;;;;;;;5024508;28;20159;-33
2021/12/20 07:51:43;;;;;;;1.48;0.90;;;;;;;;;;5022264;28;20421;-29
2021/12/20 07:54:09;;;;;;;1.63;0.85;;;;;;;;;;5022423;28;20036;-32
2021/12/20 07:56:34;;;;;;;2.75;0.60;;;;;;;;;;5023021;28;20025;-29
2021/12/20 07:59:00;;;;;;;1.80;0.90;;;;;;;;;;5023065;28;20040;-34
2021/12/20 08:01:26;;;;;;;4.03;1.20;;;;;;;;;;5022770;28;20069;-31
2021/12/20 08:03:52;;;;;;;2.25;1.25;;;;;;;;;;5037431;28;20519;-33
2021/12/20 08:06:18;;;;;;;1.92;1.00;;;;;;;;;;5041861;28;20033;-31
2021/12/20 08:08:44;;;;;;;1.27;0.88;;;;;;;;;;5041848;28;20037;-30
2021/12/20 08:11:09;;;;;;;1.30;0.90;;;;;;;;;;5042248;28;20054;-33
2021/12/20 08:13:44;;;;;;;1.80;0.90;;;;;;;;;;5042301;28;20043;-29
2021/12/20 08:16:11;;;;;;;3.08;0.80;;;;;;;;;;5041685;28;20668;-33
2021/12/20 08:18:37;;;;;;;2.13;1.25;;;;;;;;;;5042023;28;20040;-32
2021/12/20 08:21:02;;;;;;;1.15;0.80;;;;;;;;;;5041761;28;20497;-30
2021/12/20 08:23:28;;;;;;;1.17;0.73;;;;;;;;;;5042693;28;20025;-37
2021/12/20 08:25:53;;;;;;;1.27;0.82;;;;;;;;;;5042638;28;20139;-34
2021/12/20 08:28:19;;;;;;;2.30;1.23;;;;;;;;;;5033338;28;20032;-28
2021/12/20 08:30:44;;;;;;;2.35;1.02;;;;;;;;;;5022160;28;20064;-29
2021/12/20 08:33:10;;;;;;;1.88;1.13;;;;;;;;;;5022535;28;20071;-31
2021/12/20 08:35:36;;;;;;;1.27;0.90;;;;;;;;;;5022313;28;20029;-31
2021/12/20 08:38:01;;;;;;;0.75;0.57;;;;;;;;;;5022378;28;20091;-30
2021/12/20 08:40:27;;;;;;;1.85;0.93;;;;;;;;;;5024889;28;20032;-35
2021/12/20 08:42:52;;;;;;;1.27;0.82;;;;;;;;;;5026188;28;20099;-31
2021/12/20 08:45:18;;;;;;;1.75;0.90;;;;;;;;;;5034126;28;20392;-32
2021/12/20 08:47:44;;;;;;;1.40;0.75;;;;;;;;;;5036631;28;20092;-34
2021/12/20 08:50:13;;;;;;;3.00;1.70;;;;;;;;;;5043059;28;20461;-29
2021/12/20 08:52:39;;;;;;;2.47;1.08;;;;;;;;;;5044221;28;20068;-31
2021/12/20 08:55:05;;;;;;;4.07;1.10;;;;;;;;;;5026156;28;20127;-31
2021/12/20 08:57:30;;;;;;;3.65;1.10;;;;;;;;;;5026031;28;20053;-29
2021/12/20 08:59:56;;;;;;;2.38;1.00;;;;;;;;;;5025653;28;20209;-32
2021/12/20 09:02:21;;;;;;;1.15;0.68;;;;;;;;;;5025841;28;20025;-29
2021/12/20 09:04:47;;;;;;;2.10;0.98;;;;;;;;;;5026355;28;20484;-31
2021/12/20 09:07:16;;;;;;;1.13;0.73;;;;;;;;;;5030529;28;20044;-33
2021/12/20 09:09:45;;;;;;;1.35;0.95;;;;;;;;;;5032880;28;20036;-31
2021/12/20 09:12:10;;;;;;;1.25;0.95;;;;;;;;;;5035871;28;20055;-32
2021/12/20 09:14:36;;;;;;;1.55;0.95;;;;;;;;;;5035412;28;20036;-30
2021/12/20 09:17:02;;;;;;;0.73;0.68;;;;;;;;;;5033365;28;20056;-30
2021/12/20 09:19:28;;;;;;;0.95;0.75;;;;;;;;;;5023745;28;20080;-29
2021/12/20 09:21:53;;;;;;;3.70;0.90;;;;;;;;;;5025161;28;20496;-32
2021/12/20 09:24:19;;;;;;;1.63;1.00;;;;;;;;;;5026338;28;20036;-30
2021/12/20 09:26:44;;;;;;;1.88;0.80;;;;;;;;;;5032986;28;20021;-29
2021/12/20 09:29:10;;;;;;;5.38;1.35;;;;;;;;;;5032133;28;20475;-29
2021/12/20 09:31:35;;;;;;;1.25;0.63;;;;;;;;;;5038358;28;20051;-28
2021/12/20 09:34:01;;;;;;;2.83;1.00;;;;;;;;;;5041811;28;20087;-34
2021/12/20 09:36:29;;;;;;;1.38;0.73;;;;;;;;;;5040370;28;20112;-31
2021/12/20 09:38:56;;;;;;;1.38;0.85;;;;;;;;;;5044498;28;20107;-34
2021/12/20 09:41:59;;;;;;;1.10;0.77;;;;;;;;;;5033535;28;20029;-29
2021/12/20 09:44:08;;;;;;;1.02;0.77;;;;;;;;;;5041856;28;20362;-29
2021/12/20 09:46:34;;;;;;;2.25;0.70;;;;;;;;;;5038680;28;20024;-31
2021/12/20 09:49:00;;;;;;;1.08;0.88;;;;;;;;;;5029899;28;20025;-28
2021/12/20 09:51:26;;;;;;;0.90;0.68;;;;;;;;;;5041761;28;20039;-29
2021/12/20 09:53:52;;;;;;;1.33;0.70;;;;;;;;;;5030553;28;20037;-31
2021/12/20 09:56:18;;;;;;;1.20;0.75;;;;;;;;;;5035228;28;20037;-30
2021/12/20 09:58:44;;;;;;;1.08;0.88;;;;;;;;;;5028630;28;20032;-33
2021/12/20 10:01:14;;;;;;;1.23;0.60;;;;;;;;;;5011583;28;20033;-30
2021/12/20 10:03:39;;;;;;;1.60;0.70;;;;;;;;;;5036070;28;20029;-34
2021/12/20 10:06:05;;;;;;;0.88;0.70;;;;;;;;;;5036478;28;20039;-32
2021/12/20 10:08:35;;;;;;;1.08;0.90;;;;;;;;;;5032174;28;20025;-32
2021/12/20 10:11:06;;;;;;;0.80;0.60;;;;;;;;;;5035398;28;20499;-29
2021/12/20 10:13:36;;;;;;;0.73;0.52;;;;;;;;;;5025221;28;20029;-32
2021/12/20 10:16:06;;;;;;;0.95;0.80;;;;;;;;;;5031424;28;20037;-30
2021/12/20 10:18:33;;;;;;;0.88;0.80;;;;;;;;;;5035022;28;20033;-30
2021/12/20 10:21:01;;;;;;;1.20;1.00;;;;;;;;;;5027027;28;20040;-28
2021/12/20 10:23:33;;;;;;;1.50;0.90;;;;;;;;;;5034290;28;20067;-32
2021/12/20 10:26:19;;;;;;;1.17;0.73;;;;;;;;;;5029271;28;20167;-31
2021/12/20 10:28:45;;;;;;;0.95;0.70;;;;;;;;;;5026628;28;20044;-30
2021/12/20 10:31:13;;;;;;;0.93;0.80;;;;;;;;;;5041327;28;20450;-30
2021/12/20 10:33:38;;;;;;;1.08;0.75;;;;;;;;;;5035315;28;20037;-28
2021/12/20 10:36:13;;;;;;;0.95;0.70;;;;;;;;;;5032085;28;20098;-30
2021/12/20 10:38:43;;;;;;;1.60;0.90;;;;;;;;;;5035276;28;20029;-37
2021/12/20 10:41:22;;;;;;;1.15;0.75;;;;;;;;;;5034824;28;20041;-31
2021/12/20 10:43:50;;;;;;;1.10;0.80;;;;;;;;;;5032316;28;20030;-33
2021/12/20 10:46:23;;;;;;;0.90;0.70;;;;;;;;;;5037212;28;20135;-29
2021/12/20 10:48:51;;;;;;;1.35;0.90;;;;;;;;;;5032308;28;20072;-31
2021/12/20 10:51:27;;;;;;;1.10;0.70;;;;;;;;;;5024057;28;20033;-32
2021/12/20 10:54:00;;;;;;;1.10;0.70;;;;;;;;;;5033288;28;20021;-35
2021/12/20 10:56:29;;;;;;;1.38;0.90;;;;;;;;;;5043538;28;20032;-35
2021/12/20 10:58:55;;;;;;;4.07;1.02;;;;;;;;;;5043995;28;20039;-33
2021/12/20 11:02:02;;;;;;;1.52;0.80;;;;;;;;;;5043667;28;20033;-33
2021/12/20 11:04:28;;;;;;;0.90;0.80;;;;;;;;;;5028023;28;20096;-34
2021/12/20 11:09:37;;;;;;;1.05;0.88;;;;;;;;;;5029024;28;20029;-33
2021/12/20 11:12:08;;;;;;;2.17;0.70;;;;;;;;;;5028649;28;20037;-32
2021/12/20 11:14:35;;;;;;;0.57;0.52;;;;;;;;;;5042737;28;20116;-32
2021/12/20 11:17:01;;;;;;;1.13;0.90;;;;;;;;;;5033058;28;20034;-31
2021/12/20 11:19:34;;;;;;;0.88;0.70;;;;;;;;;;5023817;28;20296;-31
2021/12/20 11:22:24;;;;;;;1.15;0.80;;;;;;;;;;5036697;28;20029;-32
2021/12/20 11:24:55;;;;;;;1.50;0.90;;;;;;;;;;5029895;28;20037;-28
2021/12/20 11:27:21;;;;;;;0.95;0.68;;;;;;;;;;5027892;28;20033;-32
2021/12/20 11:29:47;;;;;;;0.70;0.60;;;;;;;;;;5036759;28;20064;-31
2021/12/20 11:32:13;;;;;;;4.03;0.77;;;;;;;;;;5035403;28;20767;-30
2021/12/20 11:34:41;;;;;;;1.00;0.82;;;;;;;;;;5033125;28;20068;-30
2021/12/20 11:37:07;;;;;;;0.98;0.73;;;;;;;;;;5035982;28;20032;-31
2021/12/20 11:39:32;;;;;;;0.70;0.55;;;;;;;;;;5026003;28;20698;-34
2021/12/20 11:41:58;;;;;;;0.70;0.52;;;;;;;;;;5022294;28;20118;-29
2021/12/20 11:44:26;;;;;;;0.82;0.63;;;;;;;;;;5033263;28;20037;-29
2021/12/20 11:47:13;;;;;;;0.75;0.60;;;;;;;;;;5026198;28;20134;-32
2021/12/20 11:49:39;;;;;;;1.02;0.63;;;;;;;;;;5034215;28;20094;-29
2021/12/20 11:52:18;;;;;;;0.50;0.50;;;;;;;;;;5033320;28;20024;-29
2021/12/20 11:54:50;;;;;;;0.85;0.80;;;;;;;;;;5032188;28;20782;-35
2021/12/20 11:57:28;;;;;;;2.10;0.70;;;;;;;;;;5033623;28;20048;-30
2021/12/20 11:59:55;;;;;;;0.80;0.70;;;;;;;;;;5032802;28;20029;-32
2021/12/20 12:02:33;;;;;;;1.25;0.68;;;;;;;;;;5030588;28;20033;-30
2021/12/20 12:05:12;;;;;;;1.48;0.95;;;;;;;;;;5033094;28;20175;-31
2021/12/20 12:07:39;;;;;;;2.40;0.63;;;;;;;;;;5022857;28;20037;-33
2021/12/20 12:10:15;;;;;;;1.40;0.80;;;;;;;;;;5022710;28;20029;-32
2021/12/20 12:12:44;;;;;;;0.90;0.60;;;;;;;;;;5040007;28;20107;-35
2021/12/20 12:15:28;;;;;;;1.20;0.70;;;;;;;;;;5026424;28;20044;-29
2021/12/20 12:18:04;;;;;;;0.60;0.50;;;;;;;;;;5026292;28;20030;-29
2021/12/20 12:20:51;;;;;;;0.90;0.52;;;;;;;;;;5036158;28;20033;-33
2021/12/20 12:23:23;;;;;;;2.70;1.35;;;;;;;;;;5034700;28;20030;-29
2021/12/20 12:26:00;;;;;;;3.60;1.92;;;;;;;;;;5037604;28;20812;-30
2021/12/20 12:28:27;;;;;;;4.25;2.15;;;;;;;;;;5031497;28;20673;-31
2021/12/20 12:31:03;;;;;;;4.68;2.50;;;;;;;;;;5025012;28;20060;-31
2021/12/20 12:33:33;;;;;;;10.32;3.50;;;;;;;;;;5026740;28;20103;-30
2021/12/20 12:36:01;;;;;;;6.20;3.80;;;;;;;;;;5026640;28;20112;-30
2021/12/20 12:38:37;;;;;;;6.95;4.72;;;;;;;;;;5026465;28;20124;-30
2021/12/20 12:41:07;;;;;;;6.13;4.30;;;;;;;;;;5026454;28;20041;-31
2021/12/20 12:43:56;;;;;;;8.95;4.80;;;;;;;;;;5026258;28;20044;-32
2021/12/20 12:46:37;;;;;;;11.32;5.32;;;;;;;;;;5041226;28;20037;-32
2021/12/20 12:49:24;;;;;;;8.25;5.38;;;;;;;;;;5045790;28;20512;-29
2021/12/20 12:51:56;;;;;;;9.57;5.88;;;;;;;;;;5045031;28;20086;-34
2021/12/20 12:54:34;;;;;;;10.20;5.93;;;;;;;;;;5046023;28;20045;-30
2021/12/20 12:57:08;;;;;;;12.32;6.45;;;;;;;;;;5045387;28;20057;-31
2021/12/20 12:59:38;;;;;;;8.27;5.72;;;;;;;;;;5039945;28;20044;-33
2021/12/20 13:02:11;;;;;;;8.90;5.90;;;;;;;;;;5035128;28;20029;-30
2021/12/20 13:04:46;;;;;;;9.27;5.80;;;;;;;;;;5039458;28;20039;-31
2021/12/20 13:07:22;;;;;;;10.25;6.40;;;;;;;;;;5038186;28;20510;-28
2021/12/20 13:09:49;;;;;;;8.68;5.60;;;;;;;;;;5037509;28;20689;-31
2021/12/20 13:12:22;;;;;;;10.48;6.32;;;;;;;;;;5041993;28;20025;-30
2021/12/20 13:14:51;;;;;;;;;;;;;;;;;;5032743;28;20034;-32
2021/12/20 13:17:37;;;;;;;8.15;5.55;;;;;;;;;;5027248;28;20760;-30
2021/12/20 13:20:42;;;;;;;9.30;6.10;;;;;;;;;;5045315;28;20558;-29
2021/12/20 13:23:15;;;;;;;7.18;5.40;;;;;;;;;;5032159;28;20060;-29
2021/12/20 13:26:00;;;;;;;8.90;5.93;;;;;;;;;;5033841;28;20025;-29
2021/12/20 13:28:27;;;;;;;8.50;6.15;;;;;;;;;;5035064;28;20676;-29
2021/12/20 13:31:12;;;;;;;9.35;5.97;;;;;;;;;;5034081;28;20025;-29
2021/12/20 13:33:46;;;;;;;7.63;5.38;;;;;;;;;;5038532;28;20379;-29
2021/12/20 13:36:19;;;;;;;7.10;4.85;;;;;;;;;;5035636;28;20022;-33
2021/12/20 13:38:48;;;;;;;7.90;6.00;;;;;;;;;;5034819;28;20519;-33
2021/12/20 13:41:18;;;;;;;9.50;6.40;;;;;;;;;;5035713;28;20016;-31
2021/12/20 13:43:46;;;;;;;8.93;6.30;;;;;;;;;;5034747;28;20130;-34
2021/12/20 13:46:30;;;;;;;7.80;5.82;;;;;;;;;;5035703;28;20021;-33
2021/12/20 13:49:06;;;;;;;8.77;6.15;;;;;;;;;;5036047;28;20139;-30
2021/12/20 13:51:45;;;;;;;8.13;5.88;;;;;;;;;;5036497;28;20842;-32
2021/12/20 13:54:36;;;;;;;9.68;6.25;;;;;;;;;;5032910;28;20116;-33
2021/12/20 13:57:08;;;;;;;11.20;5.95;;;;;;;;;;5035162;28;20092;-32
2021/12/20 13:59:38;;;;;;;7.80;6.00;;;;;;;;;;5038819;28;20060;-29
2021/12/20 14:02:10;;;;;;;9.18;6.05;;;;;;;;;;5030046;28;20033;-31
2021/12/20 14:04:40;;;;;;;7.55;5.60;;;;;;;;;;5033170;28;20028;-29
2021/12/20 14:07:24;;;;;;;9.82;5.25;;;;;;;;;;5039172;28;20037;-28
2021/12/20 14:10:03;;;;;;;11.30;5.38;;;;;;;;;;5036064;28;20064;-33
2021/12/20 14:12:36;;;;;;;13.20;5.53;;;;;;;;;;5030208;28;20056;-34
2021/12/20 14:15:06;;;;;;;12.43;5.90;;;;;;;;;;5038509;28;20033;-29
2021/12/20 14:17:50;;;;;;;10.43;5.53;;;;;;;;;;5037125;28;20427;-29
2021/12/20 14:20:16;;;;;;;9.18;4.78;;;;;;;;;;5028031;28;20037;-31
2021/12/20 14:22:59;;;;;;;7.85;5.57;;;;;;;;;;5026218;28;20084;-28
2021/12/20 14:25:32;;;;;;;11.98;5.95;;;;;;;;;;5034573;28;20499;-31
2021/12/20 14:28:05;;;;;;;11.90;5.32;;;;;;;;;;5030891;28;20037;-32
2021/12/20 14:30:31;;;;;;;8.65;5.80;;;;;;;;;;5035609;28;20112;-32
2021/12/20 14:32:57;;;;;;;9.23;5.32;;;;;;;;;;5026478;28;20114;-31
2021/12/20 14:35:33;;;;;;;13.07;5.75;;;;;;;;;;5032317;28;20029;-31
2021/12/20 14:38:01;;;;;;;8.98;5.90;;;;;;;;;;5023192;28;20025;-30
2021/12/20 14:40:44;;;;;;;9.05;5.18;;;;;;;;;;5043087;28;20450;-30
2021/12/20 14:43:14;;;;;;;9.30;5.35;;;;;;;;;;5044413;28;20120;-30
2021/12/20 14:45:40;;;;;;;19.77;5.60;;;;;;;;;;5036758;28;20034;-33
2021/12/20 14:48:18;;;;;;;13.57;5.25;;;;;;;;;;5023872;28;20041;-29
2021/12/20 14:50:46;;;;;;;15.00;4.80;;;;;;;;;;5034536;28;20492;-32
2021/12/20 14:53:16;;;;;;;18.48;4.90;;;;;;;;;;5032295;28;20038;-28
2021/12/20 14:55:42;;;;;;;10.88;4.90;;;;;;;;;;5039148;28;20102;-33
2021/12/20 14:58:07;;;;;;;9.70;5.10;;;;;;;;;;5044629;28;20048;-32
2021/12/20 15:00:33;;;;;;;15.07;4.53;;;;;;;;;;5044404;28;20039;-31
2021/12/20 15:02:58;;;;;;;8.93;5.00;;;;;;;;;;5045512;28;20128;-30